createdAt,value
2019-05-07T00:00:59.764Z,11.20
2019-05-07T00:03:29.085Z,9.03
2019-05-07T00:05:58.408Z,10.23
2019-05-07T00:08:27.684Z,8.67
2019-05-07T00:10:56.950Z,8.83
2019-05-07T00:13:26.192Z,10.43
2019-05-07T00:15:55.598Z,7.57
2019-05-07T00:18:24.902Z,8.90
2019-05-07T00:20:54.255Z,6.57
2019-05-07T00:23:23.713Z,10.20
2019-05-07T00:25:53.056Z,7.00
2019-05-07T00:28:23.063Z,7.97
2019-05-07T00:30:52.539Z,6.67
2019-05-07T00:33:22.868Z,10.40
2019-05-07T00:36:09.596Z,8.97
2019-05-07T00:38:42.762Z,9.53
2019-05-07T00:41:31.877Z,9.77
2019-05-07T00:44:03.226Z,10.67
2019-05-07T00:46:32.991Z,9.60
2019-05-07T00:49:02.492Z,8.23
2019-05-07T00:51:33.795Z,8.67
2019-05-07T00:54:05.529Z,7.80
2019-05-07T00:56:34.773Z,7.47
2019-05-07T00:59:04.221Z,9.47
2019-05-07T01:01:34.547Z,7.80
2019-05-07T01:04:03.870Z,6.80
2019-05-07T01:06:33.276Z,10.33
2019-05-07T01:09:03.432Z,9.77
2019-05-07T01:11:33.498Z,7.40
2019-05-07T01:14:03.183Z,8.50
2019-05-07T01:16:33.879Z,9.40
2019-05-07T01:19:03.055Z,9.80
2019-05-07T01:21:32.613Z,9.63
2019-05-07T01:24:03.272Z,9.93
2019-05-07T01:26:35.096Z,7.47
2019-05-07T01:29:04.324Z,10.03
2019-05-07T01:31:43.176Z,10.43
2019-05-07T01:34:44.007Z,12.60
2019-05-07T01:37:13.439Z,9.00
2019-05-07T01:39:42.781Z,7.77
2019-05-07T01:42:12.733Z,14.27
2019-05-07T01:44:42.262Z,8.57
2019-05-07T01:47:13.071Z,7.77
2019-05-07T01:49:42.626Z,9.93
2019-05-07T01:52:13.286Z,8.20
2019-05-07T01:54:42.779Z,11.30
2019-05-07T01:57:12.263Z,14.97
2019-05-07T01:59:42.746Z,13.00
2019-05-07T02:02:24.007Z,11.80
2019-05-07T02:05:12.256Z,11.77
2019-05-07T02:07:47.207Z,12.53
2019-05-07T02:10:35.646Z,17.47
2019-05-07T02:13:05.069Z,12.37
2019-05-07T02:15:34.525Z,11.23
2019-05-07T02:18:04.486Z,15.27
2019-05-07T02:20:33.801Z,14.33
2019-05-07T02:23:03.060Z,16.00
2019-05-07T02:25:32.908Z,18.20
2019-05-07T02:28:02.539Z,15.90
2019-05-07T02:30:34.931Z,15.23
2019-05-07T02:33:03.761Z,14.43
2019-05-07T02:35:33.973Z,12.73
2019-05-07T02:38:13.875Z,13.37
2019-05-07T02:40:54.344Z,13.83
2019-05-07T02:43:29.346Z,13.37
2019-05-07T02:46:25.682Z,14.70
2019-05-07T02:49:16.913Z,17.50
2019-05-07T02:51:55.362Z,15.53
2019-05-07T02:54:43.860Z,16.97
2019-05-07T02:57:16.906Z,14.27
2019-05-07T02:59:44.389Z,14.37
2019-05-07T03:02:14.035Z,17.07
2019-05-07T03:04:43.764Z,13.13
2019-05-07T03:07:13.356Z,16.73
2019-05-07T03:09:43.297Z,17.57
2019-05-07T03:12:13.444Z,15.33
2019-05-07T03:14:43.758Z,18.47
2019-05-07T03:17:13.943Z,16.00
2019-05-07T03:19:45.137Z,15.70
2019-05-07T03:22:14.473Z,15.80
2019-05-07T03:24:54.534Z,18.63
2019-05-07T03:27:23.882Z,16.57
2019-05-07T03:30:04.288Z,21.60
2019-05-07T03:32:40.230Z,18.53
2019-05-07T03:35:28.681Z,16.50
2019-05-07T03:37:58.234Z,19.00
2019-05-07T03:40:29.192Z,18.97
2019-05-07T03:43:01.862Z,20.43
2019-05-07T03:45:48.509Z,25.77
2019-05-07T03:48:23.918Z,20.17
2019-05-07T03:50:53.518Z,20.27
2019-05-07T03:53:23.436Z,23.43
2019-05-07T03:55:54.047Z,22.07
2019-05-07T03:58:24.111Z,18.77
2019-05-07T04:00:53.867Z,20.47
2019-05-07T04:03:24.825Z,17.33
2019-05-07T04:05:54.187Z,18.93
2019-05-07T04:08:24.012Z,24.27
2019-05-07T04:10:53.942Z,28.57
2019-05-07T04:13:24.532Z,24.80
2019-05-07T04:15:54.292Z,28.83
2019-05-07T04:18:24.060Z,25.17
2019-05-07T04:20:55.371Z,28.27
2019-05-07T04:23:24.638Z,25.13
2019-05-07T04:26:00.337Z,32.47
2019-05-07T04:29:05.736Z,32.37
2019-05-07T04:31:39.009Z,33.70
2019-05-07T04:34:19.495Z,29.20
2019-05-07T04:36:53.138Z,34.47
2019-05-07T04:39:23.141Z,37.17
2019-05-07T04:41:53.012Z,34.00
2019-05-07T04:44:23.687Z,43.97
2019-05-07T04:46:53.447Z,44.17
2019-05-07T04:49:24.029Z,39.10
2019-05-07T04:52:18.492Z,45.13
2019-05-07T04:54:47.836Z,43.90
2019-05-07T04:57:28.153Z,41.93
2019-05-07T05:00:03.004Z,37.43
2019-05-07T05:02:39.363Z,35.43
2019-05-07T05:05:08.777Z,38.17
2019-05-07T05:07:38.105Z,38.00
2019-05-07T05:10:07.526Z,33.90
2019-05-07T05:12:42.626Z,38.43
2019-05-07T05:15:12.633Z,36.03
2019-05-07T05:17:49.983Z,35.27
2019-05-07T05:20:14.324Z,31.23
2019-05-07T05:23:05.947Z,30.43
2019-05-07T05:25:37.883Z,29.60
2019-05-07T05:28:07.386Z,38.40
2019-05-07T05:30:42.722Z,29.00
2019-05-07T05:33:12.751Z,29.60
2019-05-07T05:35:43.201Z,31.23
2019-05-07T05:38:13.279Z,31.93
2019-05-07T05:40:42.923Z,31.77
2019-05-07T05:43:28.482Z,33.13
2019-05-07T05:46:02.538Z,39.07
2019-05-07T05:48:33.127Z,37.67
2019-05-07T05:51:08.936Z,32.77
2019-05-07T05:53:52.483Z,30.90
2019-05-07T05:56:42.667Z,30.47
2019-05-07T05:59:47.908Z,31.97
2019-05-07T06:02:28.049Z,37.47
2019-05-07T06:05:34.376Z,33.70
2019-05-07T06:08:09.447Z,30.33
2019-05-07T06:10:49.326Z,27.57
2019-05-07T06:13:24.381Z,32.07
2019-05-07T06:15:59.442Z,28.87
2019-05-07T06:18:53.771Z,30.20
2019-05-07T06:21:42.103Z,30.60
2019-05-07T06:24:13.499Z,28.03
2019-05-07T06:26:42.728Z,29.77
2019-05-07T06:29:12.150Z,33.30
2019-05-07T06:31:42.199Z,31.20
2019-05-07T06:34:14.048Z,33.30
2019-05-07T06:36:43.497Z,32.53
2019-05-07T06:39:19.108Z,31.60
2019-05-07T06:42:06.149Z,28.13
2019-05-07T06:44:36.111Z,29.67
2019-05-07T06:47:05.625Z,29.10
2019-05-07T06:49:34.994Z,25.60
2019-05-07T06:52:04.418Z,26.03
2019-05-07T06:54:33.701Z,28.23
2019-05-07T06:57:03.129Z,28.43
2019-05-07T06:59:38.097Z,26.70
2019-05-07T07:02:28.340Z,23.60
2019-05-07T07:05:02.973Z,21.83
2019-05-07T07:07:38.118Z,19.57
2019-05-07T07:10:32.224Z,24.23
2019-05-07T07:13:02.465Z,22.23
2019-05-07T07:15:32.413Z,22.83
2019-05-07T07:18:03.275Z,20.90
2019-05-07T07:20:33.172Z,22.30
2019-05-07T07:23:02.593Z,20.70
2019-05-07T07:25:32.586Z,20.53
2019-05-07T07:28:02.751Z,20.57
2019-05-07T07:30:54.540Z,17.37
2019-05-07T07:33:26.811Z,17.60
2019-05-07T07:35:56.115Z,21.67
2019-05-07T07:38:35.173Z,21.43
2019-05-07T07:41:29.658Z,18.97
2019-05-07T07:43:59.109Z,17.97
2019-05-07T07:46:28.369Z,20.03
2019-05-07T07:49:07.893Z,21.23
2019-05-07T07:51:40.653Z,16.00
2019-05-07T07:53:59.575Z,20.47
2019-05-07T07:56:52.243Z,18.63
2019-05-07T07:59:37.921Z,17.57
2019-05-07T08:02:15.680Z,20.57
2019-05-07T08:04:45.032Z,20.03
2019-05-07T08:07:14.366Z,18.83
2019-05-07T08:09:43.661Z,21.00
2019-05-07T08:12:14.257Z,20.47
2019-05-07T08:14:43.703Z,20.63
2019-05-07T08:17:13.291Z,17.67
2019-05-07T08:19:43.080Z,18.53
2019-05-07T08:22:13.412Z,19.53
2019-05-07T08:24:42.864Z,23.87
2019-05-07T08:27:14.748Z,18.80
2019-05-07T08:29:43.335Z,18.33
2019-05-07T08:32:32.633Z,22.37
2019-05-07T08:35:08.374Z,17.97
2019-05-07T08:37:37.965Z,17.50
2019-05-07T08:40:07.973Z,18.33
2019-05-07T08:42:37.279Z,17.83
2019-05-07T08:45:28.540Z,18.13
2019-05-07T08:48:01.996Z,14.37
2019-05-07T08:50:32.637Z,14.67
2019-05-07T08:53:02.825Z,19.47
2019-05-07T08:55:32.364Z,19.57
2019-05-07T08:58:02.226Z,16.83
2019-05-07T09:00:32.569Z,15.83
2019-05-07T09:03:02.164Z,21.17
2019-05-07T09:05:32.388Z,14.80
2019-05-07T09:08:02.874Z,16.33
2019-05-07T09:10:32.613Z,15.57
2019-05-07T09:13:02.880Z,16.87
2019-05-07T09:15:32.388Z,16.63
2019-05-07T09:18:02.106Z,19.87
2019-05-07T09:20:32.663Z,14.67
2019-05-07T09:23:02.226Z,21.93
2019-05-07T09:25:35.460Z,21.03
2019-05-07T09:28:04.879Z,21.10
2019-05-07T09:30:52.484Z,16.70
2019-05-07T09:33:42.274Z,16.27
2019-05-07T09:36:22.756Z,15.50
2019-05-07T09:38:56.830Z,14.13
2019-05-07T09:41:29.282Z,19.50
2019-05-07T09:43:58.964Z,17.53
2019-05-07T09:46:28.287Z,14.67
2019-05-07T09:48:57.635Z,16.87
2019-05-07T09:51:26.995Z,16.40
2019-05-07T09:53:56.447Z,19.13
2019-05-07T09:56:25.843Z,13.83
2019-05-07T09:58:55.298Z,18.13
2019-05-07T10:01:24.568Z,15.87
2019-05-07T10:03:54.195Z,15.87
2019-05-07T10:06:25.490Z,13.57
2019-05-07T10:08:54.596Z,14.63
2019-05-07T10:11:33.526Z,14.90
2019-05-07T10:14:33.051Z,20.87
2019-05-07T10:17:25.195Z,12.80
2019-05-07T10:19:54.616Z,14.93
2019-05-07T10:22:24.071Z,18.00
2019-05-07T10:24:53.621Z,16.63
2019-05-07T10:27:23.095Z,16.60
2019-05-07T10:30:02.429Z,19.23
2019-05-07T10:32:54.188Z,16.50
2019-05-07T10:35:23.743Z,17.70
2019-05-07T10:37:53.176Z,15.70
2019-05-07T10:40:22.665Z,15.03
2019-05-07T10:42:52.216Z,14.90
2019-05-07T10:45:42.166Z,18.17
2019-05-07T10:48:29.257Z,17.73
2019-05-07T10:50:59.287Z,17.87
2019-05-07T10:53:28.697Z,16.67
2019-05-07T10:55:59.658Z,15.97
2019-05-07T16:03:36.809Z,11.10
2019-05-07T16:06:07.334Z,13.97
2019-05-07T16:08:42.713Z,14.93
2019-05-07T16:11:12.598Z,12.73
2019-05-07T16:13:52.119Z,16.33
2019-05-07T16:16:21.558Z,13.47
2019-05-07T16:19:12.495Z,13.23
2019-05-07T16:21:42.717Z,13.37
2019-05-07T16:24:12.162Z,15.00
2019-05-07T16:26:42.351Z,13.67
2019-05-07T16:29:13.212Z,13.33
2019-05-07T16:31:44.225Z,14.70
2019-05-07T16:34:13.735Z,15.00
2019-05-07T16:36:43.118Z,14.30
2019-05-07T16:39:12.332Z,13.17
2019-05-07T16:41:42.246Z,15.23
2019-05-07T16:44:12.381Z,16.97
2019-05-07T16:46:42.645Z,14.10
2019-05-07T16:49:12.299Z,13.63
2019-05-07T16:51:44.444Z,13.47
2019-05-07T16:54:12.459Z,13.70
2019-05-07T16:57:02.874Z,14.00
2019-05-07T16:59:32.350Z,13.13
2019-05-07T17:02:07.022Z,16.03
2019-05-07T17:04:36.303Z,12.93
2019-05-07T17:07:07.255Z,18.03
2019-05-07T17:09:36.507Z,15.13
2019-05-07T17:12:08.711Z,15.53
2019-05-07T17:14:38.059Z,16.47
2019-05-07T17:17:07.389Z,12.40
2019-05-07T17:19:36.756Z,14.37
2019-05-07T17:22:06.588Z,15.63
2019-05-07T17:24:36.681Z,12.97
2019-05-07T17:27:05.887Z,18.30
2019-05-07T17:29:35.135Z,15.67
2019-05-07T17:32:04.475Z,14.60
2019-05-07T17:34:33.735Z,14.13
2019-05-07T17:37:03.054Z,15.40
2019-05-07T17:39:32.350Z,13.10
2019-05-07T17:42:02.582Z,13.80
2019-05-07T17:44:33.232Z,15.80
2019-05-07T17:47:03.401Z,15.10
2019-05-07T17:49:33.994Z,17.03
2019-05-07T17:52:03.813Z,17.37
2019-05-07T17:54:33.156Z,17.20
2019-05-07T17:57:02.397Z,14.63
2019-05-07T17:59:32.181Z,17.43
2019-05-07T18:02:32.246Z,19.80
2019-05-07T18:05:02.874Z,15.37
2019-05-07T18:07:33.111Z,16.27
2019-05-07T18:10:04.689Z,13.73
2019-05-07T18:12:34.078Z,17.03
2019-05-07T18:15:03.417Z,16.10
2019-05-07T18:18:00.157Z,17.17
2019-05-07T18:20:28.560Z,20.37
2019-05-07T18:22:57.879Z,15.87
2019-05-07T18:25:27.126Z,17.13
2019-05-07T18:27:56.313Z,21.10
2019-05-07T18:30:25.627Z,16.07
2019-05-07T18:33:16.788Z,18.53
2019-05-07T18:35:48.084Z,16.63
2019-05-07T18:38:17.262Z,18.57
2019-05-07T18:40:46.605Z,18.30
2019-05-07T18:43:16.067Z,20.80
2019-05-07T18:45:45.422Z,18.07
2019-05-07T18:48:16.350Z,19.00
2019-05-07T18:50:45.657Z,17.33
2019-05-07T18:53:14.993Z,18.03
2019-05-07T18:55:44.327Z,18.47
2019-05-07T18:58:13.559Z,15.80
2019-05-07T19:00:46.889Z,16.67
2019-05-07T19:03:16.263Z,15.77
2019-05-07T19:05:45.666Z,22.80
2019-05-07T19:08:14.928Z,17.83
2019-05-07T19:10:44.153Z,19.53
2019-05-07T19:13:13.402Z,16.97
2019-05-07T19:15:42.665Z,21.30
2019-05-07T19:18:12.195Z,17.23
2019-05-07T19:20:42.189Z,14.63
2019-05-07T19:23:12.068Z,19.13
2019-05-07T19:25:42.093Z,17.07
2019-05-07T19:28:14.914Z,15.77
2019-05-07T19:30:43.006Z,15.63
2019-05-07T19:33:12.472Z,17.53
2019-05-07T19:35:42.006Z,21.73
2019-05-07T19:38:11.259Z,18.07
2019-05-07T19:40:42.632Z,15.87
2019-05-07T19:43:12.304Z,15.67
2019-05-07T19:45:41.891Z,13.80
2019-05-07T19:48:12.435Z,17.50
2019-05-07T19:50:43.502Z,14.00
2019-05-07T19:53:12.706Z,16.13
2019-05-07T19:56:01.918Z,14.93
2019-05-07T19:58:32.712Z,18.83
2019-05-07T20:01:03.071Z,17.83
2019-05-07T20:03:32.305Z,14.00
2019-05-07T20:06:02.441Z,13.93
2019-05-07T20:08:32.480Z,19.17
2019-05-07T20:11:12.091Z,18.23
2019-05-07T20:13:43.635Z,15.70
2019-05-07T20:16:16.232Z,16.77
2019-05-07T20:18:45.525Z,15.90
2019-05-07T20:21:27.420Z,19.47
2019-05-07T20:23:56.741Z,18.33
2019-05-07T20:26:26.275Z,14.63
2019-05-07T20:28:55.583Z,16.73
2019-05-07T20:31:24.939Z,18.13
2019-05-07T20:33:54.732Z,16.27
2019-05-07T20:36:24.019Z,16.00
2019-05-07T20:38:53.273Z,17.10
2019-05-07T20:41:23.286Z,17.90
2019-05-07T20:43:53.034Z,14.43
2019-05-07T20:46:22.346Z,17.90
2019-05-07T20:48:52.602Z,17.73
2019-05-07T20:51:23.224Z,17.40
2019-05-07T20:54:22.706Z,15.20
2019-05-07T20:57:02.270Z,18.43
2019-05-07T20:59:32.748Z,15.43
2019-05-07T21:02:02.453Z,14.30
2019-05-07T21:04:33.011Z,18.23
2019-05-07T21:07:02.968Z,16.93
2019-05-07T21:09:32.967Z,16.47
2019-05-07T21:12:02.364Z,16.80
2019-05-07T21:14:32.483Z,15.97
2019-05-07T21:17:01.966Z,15.60
2019-05-07T21:19:33.102Z,14.43
2019-05-07T21:22:02.270Z,17.17
2019-05-07T21:24:33.065Z,15.20
2019-05-07T21:27:02.754Z,15.83
2019-05-07T21:29:32.821Z,14.23
2019-05-07T21:32:03.332Z,17.63
2019-05-07T21:34:33.014Z,15.40
2019-05-07T21:37:03.231Z,14.53
2019-05-07T21:39:33.115Z,16.97
2019-05-07T21:42:02.745Z,15.57
2019-05-07T21:44:32.644Z,15.30
2019-05-07T21:47:03.951Z,16.60
2019-05-07T21:49:33.340Z,18.43
2019-05-07T21:52:02.732Z,16.60
2019-05-07T21:55:02.227Z,15.90
2019-05-07T21:57:47.422Z,15.63
2019-05-07T22:00:23.193Z,14.83
2019-05-07T22:02:53.011Z,14.50
2019-05-07T22:05:22.540Z,17.97
2019-05-07T22:07:54.151Z,18.07
2019-05-07T22:10:23.103Z,15.80
2019-05-07T22:12:54.603Z,17.00
2019-05-07T22:15:23.261Z,19.07
2019-05-07T22:17:52.438Z,15.27
2019-05-07T22:20:21.738Z,18.60
2019-05-07T22:22:52.139Z,17.00
2019-05-07T22:25:22.157Z,15.13
2019-05-07T22:27:52.960Z,16.70
2019-05-07T22:30:29.405Z,15.03
2019-05-07T22:33:04.249Z,16.83
2019-05-07T22:35:39.995Z,15.97
2019-05-07T22:38:09.223Z,14.13
2019-05-07T22:40:38.500Z,18.40
2019-05-07T22:43:07.721Z,17.50
2019-05-07T22:45:36.953Z,14.93
2019-05-07T22:48:06.151Z,16.87
2019-05-07T22:50:35.433Z,15.57
2019-05-07T22:53:04.705Z,17.47
2019-05-07T22:55:34.029Z,17.10
2019-05-07T22:58:14.176Z,19.30
2019-05-07T23:00:50.491Z,17.63
2019-05-07T23:03:19.904Z,15.07
2019-05-07T23:05:49.134Z,16.10
2019-05-07T23:08:18.381Z,16.57
2019-05-07T23:10:47.627Z,15.57
2019-05-07T23:13:16.884Z,16.20
2019-05-07T23:15:46.335Z,16.53
2019-05-07T23:18:16.307Z,16.27
2019-05-07T23:20:45.565Z,13.10
2019-05-07T23:23:15.257Z,16.60
2019-05-07T23:25:44.455Z,16.00
2019-05-07T23:28:13.776Z,18.10
2019-05-07T23:30:44.326Z,14.53
2019-05-07T23:33:14.335Z,17.80
2019-05-07T23:35:43.606Z,17.23
2019-05-07T23:38:15.753Z,16.47
2019-05-07T23:41:02.112Z,16.90
2019-05-07T23:43:32.582Z,17.90
2019-05-07T23:46:02.509Z,16.33
2019-05-07T23:48:32.234Z,14.83
2019-05-07T23:51:02.292Z,18.50
2019-05-07T23:53:31.692Z,17.67
2019-05-07T23:56:02.842Z,17.60
2019-05-07T23:58:32.644Z,16.13
